Time;durP1;ratioP1;P1;durP2;ratioP2;P2;SDS_P1;SDS_P2;PMS_P1;PMS_P2;Temp;Humidity;BMP_temperature;BMP_pressure;BME280_temperature;BME280_humidity;BME280_pressure;Samples;Min_cycle;Max_cycle;Signal;HPM_P1;HPM_P2
2023/12/28 00:02:06;;;;;;;11.98;10.55;;;8.50;99.90;;;;;;5073440;28;20552;-72
2023/12/28 00:04:34;;;;;;;10.35;8.95;;;8.60;99.90;;;;;;5073946;28;20052;-72
2023/12/28 00:07:01;;;;;;;10.45;8.98;;;8.70;99.90;;;;;;5073810;28;20056;-72
2023/12/28 00:09:27;;;;;;;10.35;8.43;;;8.80;99.90;;;;;;5074089;28;20054;-72
2023/12/28 00:11:53;;;;;;;9.25;8.30;;;8.90;99.90;;;;;;5073649;28;20024;-72
2023/12/28 00:14:19;;;;;;;9.20;8.30;;;8.70;99.90;;;;;;5073661;28;20090;-72
2023/12/28 00:16:44;;;;;;;10.88;9.75;;;8.60;99.90;;;;;;5073210;28;20032;-73
2023/12/28 00:19:10;;;;;;;9.80;8.90;;;8.40;99.90;;;;;;5073687;28;20050;-72
2023/12/28 00:21:36;;;;;;;10.30;9.30;;;8.40;99.90;;;;;;5073768;28;20116;-72
2023/12/28 00:24:02;;;;;;;10.52;9.43;;;8.30;99.90;;;;;;5073559;28;20032;-72
2023/12/28 00:26:27;;;;;;;11.15;9.60;;;8.30;99.90;;;;;;5073519;28;20513;-72
2023/12/28 00:28:53;;;;;;;11.13;9.55;;;8.20;99.90;;;;;;5073431;28;20025;-72
2023/12/28 00:31:19;;;;;;;10.55;9.55;;;8.20;99.90;;;;;;5073534;28;20031;-72
2023/12/28 00:33:44;;;;;;;12.18;10.82;;;8.20;99.90;;;;;;5073348;28;20036;-72
2023/12/28 00:36:10;;;;;;;11.70;10.05;;;8.20;99.90;;;;;;5073262;28;20518;-73
2023/12/28 00:38:36;;;;;;;11.27;9.52;;;8.20;99.90;;;;;;5073198;28;20069;-72
2023/12/28 00:41:01;;;;;;;9.85;8.65;;;8.20;99.90;;;;;;5073015;28;20052;-72
2023/12/28 00:43:27;;;;;;;9.25;7.97;;;8.20;99.90;;;;;;5072991;28;20383;-72
2023/12/28 00:45:53;;;;;;;9.88;8.30;;;8.20;99.90;;;;;;5072644;28;20044;-73
2023/12/28 00:48:18;;;;;;;9.13;8.18;;;8.20;99.90;;;;;;5073207;28;20055;-73
2023/12/28 00:50:44;;;;;;;9.25;7.72;;;8.20;99.90;;;;;;5072940;28;20056;-73
2023/12/28 00:53:09;;;;;;;8.48;7.43;;;8.20;99.90;;;;;;5073424;28;20028;-72
2023/12/28 00:55:35;;;;;;;8.80;7.35;;;8.20;99.90;;;;;;5072939;28;20039;-72
2023/12/28 00:58:01;;;;;;;9.75;7.70;;;8.20;99.90;;;;;;5072666;28;20033;-72
2023/12/28 01:00:26;;;;;;;9.15;7.60;;;8.20;99.90;;;;;;5072543;28;20075;-72
2023/12/28 01:02:53;;;;;;;11.82;8.45;;;8.20;99.90;;;;;;5072579;28;20380;-73
2023/12/28 01:05:20;;;;;;;9.25;7.57;;;8.30;99.90;;;;;;5073187;28;20078;-72
2023/12/28 01:07:46;;;;;;;8.18;7.25;;;8.30;99.90;;;;;;5072731;28;20033;-72
2023/12/28 01:10:12;;;;;;;8.20;7.30;;;8.30;99.90;;;;;;5072819;28;20020;-72
2023/12/28 01:12:37;;;;;;;9.18;7.40;;;8.30;99.90;;;;;;5071373;28;20020;-72
2023/12/28 01:15:03;;;;;;;8.27;7.15;;;8.30;99.90;;;;;;5072344;28;20494;-72
2023/12/28 01:17:29;;;;;;;8.25;6.50;;;8.30;99.90;;;;;;5072481;28;20032;-72
2023/12/28 01:19:55;;;;;;;7.03;6.30;;;8.30;99.90;;;;;;5072493;28;20164;-72
2023/12/28 01:22:20;;;;;;;7.13;6.43;;;8.30;99.90;;;;;;5072327;28;20072;-72
2023/12/28 01:24:49;;;;;;;7.68;6.90;;;8.30;99.90;;;;;;5072349;28;20025;-73
2023/12/28 01:27:15;;;;;;;7.10;6.40;;;8.30;99.90;;;;;;5072165;28;20734;-72
2023/12/28 01:29:40;;;;;;;7.70;6.80;;;8.30;99.90;;;;;;5072011;28;20028;-72
2023/12/28 01:32:06;;;;;;;7.70;6.93;;;8.30;99.90;;;;;;5072652;28;20063;-73
2023/12/28 01:34:31;;;;;;;7.80;7.05;;;8.30;99.90;;;;;;5072194;28;20024;-72
2023/12/28 01:36:57;;;;;;;8.60;7.70;;;8.30;99.90;;;;;;5072210;28;20029;-72
2023/12/28 01:39:23;;;;;;;8.27;7.47;;;8.30;99.90;;;;;;5072393;28;20024;-72
2023/12/28 01:41:48;;;;;;;9.57;7.85;;;8.30;99.90;;;;;;5071978;28;20077;-72
2023/12/28 01:44:14;;;;;;;11.55;7.78;;;8.20;99.90;;;;;;5057541;28;20036;-72
2023/12/28 01:46:41;;;;;;;12.02;7.45;;;8.20;99.90;;;;;;5072365;28;20041;-71
2023/12/28 01:49:07;;;;;;;9.15;7.30;;;8.30;99.90;;;;;;5071700;28;20028;-72
2023/12/28 01:51:33;;;;;;;9.20;7.78;;;8.70;99.90;;;;;;5072543;28;20031;-71
2023/12/28 01:53:59;;;;;;;8.60;7.80;;;8.80;99.90;;;;;;5072091;28;20056;-71
2023/12/28 01:56:26;;;;;;;9.88;7.80;;;9.00;99.90;;;;;;5071919;28;20028;-72
2023/12/28 01:58:52;;;;;;;8.18;7.38;;;9.10;99.90;;;;;;5071752;28;20033;-72
2023/12/28 02:01:18;;;;;;;8.65;7.60;;;9.10;99.90;;;;;;5072126;28;20127;-71
2023/12/28 02:03:45;;;;;;;8.73;7.80;;;9.10;99.90;;;;;;5072008;28;20036;-72
2023/12/28 02:06:12;;;;;;;9.15;7.70;;;9.10;99.90;;;;;;5071769;28;20486;-72
2023/12/28 02:08:37;;;;;;;7.53;6.78;;;9.10;99.90;;;;;;5072005;28;20021;-72
2023/12/28 02:11:04;;;;;;;7.80;7.00;;;8.90;99.90;;;;;;5072097;28;20105;-72
2023/12/28 02:13:29;;;;;;;7.88;7.07;;;8.80;99.90;;;;;;5075824;28;20394;-72
2023/12/28 02:16:03;;;;;;;8.50;7.18;;;8.70;99.90;;;;;;5076344;28;20081;-73
2023/12/28 02:18:37;;;;;;;9.13;7.30;;;8.60;99.90;;;;;;5075992;28;20037;-72
2023/12/28 02:21:04;;;;;;;8.38;7.13;;;8.50;99.90;;;;;;5075927;28;20021;-72
2023/12/28 02:23:32;;;;;;;8.18;7.38;;;8.50;99.90;;;;;;5076069;28;20097;-72
2023/12/28 02:25:57;;;;;;;9.63;7.72;;;8.40;99.90;;;;;;5075386;28;20078;-73
2023/12/28 02:28:23;;;;;;;8.70;7.90;;;8.40;99.90;;;;;;5075561;28;20032;-72
2023/12/28 02:30:48;;;;;;;9.20;8.23;;;8.30;99.90;;;;;;5075992;28;20523;-72
2023/12/28 02:33:33;;;;;;;9.25;7.88;;;8.40;99.90;;;;;;5075784;28;20029;-72
2023/12/28 02:36:05;;;;;;;8.27;7.47;;;8.40;99.90;;;;;;5075646;28;20052;-73
2023/12/28 02:38:32;;;;;;;8.45;7.60;;;8.40;99.90;;;;;;5075897;28;20496;-72
2023/12/28 02:40:58;;;;;;;8.40;7.53;;;8.30;99.90;;;;;;5075346;28;20044;-72
2023/12/28 02:43:24;;;;;;;8.32;7.45;;;8.30;99.90;;;;;;5075149;28;20044;-72
2023/12/28 02:45:49;;;;;;;9.18;8.20;;;8.30;99.90;;;;;;5075174;28;20056;-72
2023/12/28 02:48:15;;;;;;;10.02;8.20;;;8.30;99.90;;;;;;5075283;28;20074;-72
2023/12/28 02:50:40;;;;;;;9.32;8.43;;;8.30;99.90;;;;;;5075837;28;20021;-72
2023/12/28 02:53:06;;;;;;;9.23;8.32;;;8.30;99.90;;;;;;5075102;28;20037;-72
2023/12/28 02:55:32;;;;;;;9.80;8.80;;;8.30;99.90;;;;;;5075341;28;20111;-72
2023/12/28 02:58:01;;;;;;;10.35;8.50;;;8.30;99.90;;;;;;5074838;28;20033;-72
2023/12/28 03:00:27;;;;;;;9.20;8.30;;;8.30;99.90;;;;;;5075090;28;20090;-72
2023/12/28 03:02:53;;;;;;;9.48;8.60;;;8.30;99.90;;;;;;5075029;28;20486;-72
2023/12/28 03:05:18;;;;;;;9.70;8.70;;;8.30;99.90;;;;;;5074970;28;20043;-72
2023/12/28 03:07:45;;;;;;;9.27;8.38;;;8.30;99.90;;;;;;5075169;28;20546;-73
2023/12/28 03:10:11;;;;;;;9.68;8.30;;;8.30;99.90;;;;;;5074933;28;20078;-72
2023/12/28 03:12:37;;;;;;;9.85;8.45;;;8.30;99.90;;;;;;5074622;28;20033;-72
2023/12/28 03:15:04;;;;;;;9.57;8.68;;;8.30;99.90;;;;;;5074843;28;20029;-72
2023/12/28 03:17:30;;;;;;;11.23;8.45;;;8.30;99.90;;;;;;5074717;28;20029;-72
2023/12/28 03:19:56;;;;;;;10.80;8.25;;;8.30;99.90;;;;;;5074861;28;20024;-73
2023/12/28 03:22:22;;;;;;;10.38;8.55;;;8.30;99.90;;;;;;5074601;28;20040;-72
2023/12/28 03:24:48;;;;;;;11.10;9.15;;;8.20;99.90;;;;;;5073874;28;20398;-73
2023/12/28 03:27:14;;;;;;;13.07;9.05;;;8.20;99.90;;;;;;5074512;28;20099;-72
2023/12/28 03:29:42;;;;;;;11.25;9.13;;;8.20;99.90;;;;;;5074778;28;20030;-73
2023/12/28 03:32:07;;;;;;;10.27;8.80;;;8.20;99.90;;;;;;5074558;28;20390;-72
2023/12/28 03:34:34;;;;;;;9.82;8.80;;;8.20;99.90;;;;;;5074921;28;20028;-73
2023/12/28 03:37:00;;;;;;;9.27;8.38;;;8.20;99.90;;;;;;5074211;28;20496;-72
2023/12/28 03:39:26;;;;;;;9.48;8.15;;;8.20;99.90;;;;;;5074381;28;20079;-73
2023/12/28 03:41:54;;;;;;;9.38;8.38;;;8.20;99.90;;;;;;5073951;28;20056;-72
2023/12/28 03:44:20;;;;;;;8.55;7.75;;;8.30;99.90;;;;;;5074136;28;20097;-71
2023/12/28 03:46:50;;;;;;;10.55;7.70;;;8.60;99.90;;;;;;5074567;28;20043;-72
2023/12/28 03:49:20;;;;;;;8.50;7.60;;;8.70;99.90;;;;;;5074269;28;20021;-72
2023/12/28 03:51:46;;;;;;;9.25;7.40;;;8.90;99.90;;;;;;5074191;28;20028;-71
2023/12/28 03:54:15;;;;;;;7.95;7.13;;;8.90;99.90;;;;;;5074186;28;20047;-71
2023/12/28 03:56:42;;;;;;;8.52;7.38;;;9.10;99.90;;;;;;5073841;28;20044;-72
2023/12/28 03:59:08;;;;;;;8.48;7.28;;;9.00;99.90;;;;;;5073984;28;20513;-72
2023/12/28 04:01:34;;;;;;;8.85;7.07;;;9.00;99.90;;;;;;5074484;28;20064;-72
2023/12/28 04:04:00;;;;;;;9.55;7.50;;;9.00;99.90;;;;;;5074040;28;20064;-72
2023/12/28 04:06:25;;;;;;;8.40;7.43;;;8.90;99.90;;;;;;5073834;28;20024;-72
2023/12/28 04:08:51;;;;;;;10.07;7.53;;;8.80;99.90;;;;;;5073945;28;20443;-72
2023/12/28 04:11:17;;;;;;;9.30;8.40;;;8.60;99.90;;;;;;5073847;28;20028;-72
2023/12/28 04:13:42;;;;;;;8.52;7.72;;;8.60;99.90;;;;;;5073816;28;20028;-73
2023/12/28 04:16:12;;;;;;;9.13;7.72;;;8.50;99.90;;;;;;5073648;28;20021;-72
2023/12/28 04:18:38;;;;;;;9.95;8.18;;;8.50;99.90;;;;;;5073747;28;20086;-72
2023/12/28 04:21:03;;;;;;;8.85;7.88;;;8.50;99.90;;;;;;5073703;28;20017;-72
2023/12/28 04:23:29;;;;;;;9.13;8.23;;;8.40;99.90;;;;;;5073473;28;20112;-72
2023/12/28 04:25:55;;;;;;;11.38;8.23;;;8.40;99.90;;;;;;5073054;28;20399;-72
2023/12/28 04:28:20;;;;;;;10.57;8.40;;;8.40;99.90;;;;;;5073618;28;20044;-72
2023/12/28 04:30:46;;;;;;;10.55;8.70;;;8.40;99.90;;;;;;5073394;28;20033;-73
2023/12/28 04:33:12;;;;;;;9.32;8.07;;;8.40;99.90;;;;;;5074105;28;20021;-72
2023/12/28 04:35:37;;;;;;;8.95;7.72;;;8.40;99.90;;;;;;5072662;28;20509;-72
2023/12/28 04:38:03;;;;;;;9.30;8.30;;;8.50;99.90;;;;;;5073409;28;20386;-72
2023/12/28 04:40:29;;;;;;;11.10;8.05;;;8.40;99.90;;;;;;5072745;28;20049;-72
2023/12/28 04:42:55;;;;;;;9.80;8.63;;;8.50;99.90;;;;;;5073071;28;20036;-72
2023/12/28 04:45:22;;;;;;;9.93;7.82;;;8.50;99.90;;;;;;5073276;28;20433;-72
2023/12/28 04:47:47;;;;;;;10.07;8.23;;;8.40;99.90;;;;;;5073204;28;20390;-73
2023/12/28 04:50:13;;;;;;;12.15;8.10;;;8.40;99.90;;;;;;5072851;28;20111;-72
2023/12/28 04:52:40;;;;;;;9.20;8.20;;;8.40;99.90;;;;;;5072558;28;20035;-72
2023/12/28 04:55:06;;;;;;;10.63;8.38;;;8.50;99.90;;;;;;5072925;28;20021;-72
2023/12/28 04:57:32;;;;;;;9.55;8.48;;;8.50;99.90;;;;;;5073272;28;20024;-73
2023/12/28 04:59:58;;;;;;;10.13;8.20;;;8.50;99.90;;;;;;5072847;28;20024;-72
2023/12/28 05:02:23;;;;;;;10.13;8.80;;;8.50;99.90;;;;;;5072854;28;20032;-72
2023/12/28 05:04:49;;;;;;;9.50;8.18;;;8.50;99.90;;;;;;5072455;28;20077;-72
2023/12/28 05:07:14;;;;;;;9.63;8.30;;;8.50;99.90;;;;;;5072414;28;20107;-72
2023/12/28 05:09:40;;;;;;;10.50;8.27;;;8.50;99.90;;;;;;5073119;28;20024;-73
2023/12/28 05:12:06;;;;;;;10.15;8.30;;;8.50;99.90;;;;;;5072225;28;20190;-73
2023/12/28 05:14:31;;;;;;;11.70;8.45;;;8.50;99.90;;;;;;5073053;28;20036;-72
2023/12/28 05:16:57;;;;;;;9.77;7.85;;;8.50;99.90;;;;;;5072504;28;20028;-72
2023/12/28 05:19:23;;;;;;;11.60;8.38;;;8.50;99.90;;;;;;5072421;28;20039;-72
2023/12/28 05:21:48;;;;;;;13.38;8.57;;;8.50;99.90;;;;;;5072240;28;20387;-72
2023/12/28 05:24:14;;;;;;;9.32;7.88;;;8.50;99.90;;;;;;5072781;28;20037;-72
2023/12/28 05:26:40;;;;;;;11.18;8.18;;;8.50;99.90;;;;;;5072392;28;20099;-72
2023/12/28 05:29:05;;;;;;;11.45;8.00;;;8.50;99.90;;;;;;5072362;28;20031;-72
2023/12/28 05:31:31;;;;;;;10.63;8.10;;;8.50;99.90;;;;;;5072420;28;20079;-73
2023/12/28 05:33:58;;;;;;;10.73;7.90;;;8.50;99.90;;;;;;5072271;28;20429;-72
2023/12/28 05:36:26;;;;;;;9.23;8.18;;;8.50;99.90;;;;;;5071899;28;20074;-72
2023/12/28 05:38:52;;;;;;;15.00;9.02;;;8.50;99.90;;;;;;5072317;28;20107;-72
2023/12/28 05:41:17;;;;;;;10.00;7.47;;;8.70;99.90;;;;;;5072023;28;20473;-72
2023/12/28 05:43:43;;;;;;;9.50;8.40;;;8.90;99.90;;;;;;5072525;28;20545;-72
2023/12/28 05:46:09;;;;;;;9.27;8.15;;;9.10;99.90;;;;;;5071279;28;20056;-72
2023/12/28 05:48:35;;;;;;;10.82;7.43;;;9.30;99.90;;;;;;5072112;28;20029;-71
2023/12/28 05:51:00;;;;;;;10.20;7.40;;;9.30;99.90;;;;;;5071873;28;20473;-72
2023/12/28 05:53:27;;;;;;;9.07;7.15;;;9.40;99.90;;;;;;5072521;28;20024;-71
2023/12/28 05:55:53;;;;;;;10.02;6.70;;;9.50;99.90;;;;;;5072060;28;20025;-72
2023/12/28 05:58:19;;;;;;;10.40;7.10;;;9.40;99.90;;;;;;5072101;28;20089;-71
2023/12/28 06:00:46;;;;;;;10.05;7.65;;;9.30;99.90;;;;;;5071914;28;20563;-72
2023/12/28 06:03:12;;;;;;;8.63;6.97;;;9.20;99.90;;;;;;5072548;28;20056;-72
2023/12/28 06:05:37;;;;;;;8.57;7.07;;;9.10;99.90;;;;;;5071734;28;20056;-72
2023/12/28 06:08:04;;;;;;;9.18;6.95;;;9.00;99.90;;;;;;5071836;28;20024;-72
2023/12/28 06:10:29;;;;;;;9.27;7.40;;;8.90;99.90;;;;;;5072618;28;20025;-72
2023/12/28 06:12:55;;;;;;;10.07;7.40;;;8.90;99.90;;;;;;5071796;28;20134;-72
2023/12/28 06:15:21;;;;;;;10.73;7.38;;;8.90;99.90;;;;;;5071722;28;20147;-72
2023/12/28 06:17:46;;;;;;;9.68;7.07;;;8.80;99.90;;;;;;5071837;28;20085;-73
2023/12/28 06:20:12;;;;;;;9.70;6.90;;;8.80;99.90;;;;;;5071509;28;20027;-72
2023/12/28 06:22:39;;;;;;;8.93;7.20;;;8.80;99.90;;;;;;5071822;28;20036;-72
2023/12/28 06:25:04;;;;;;;11.00;7.63;;;8.80;99.90;;;;;;5072166;28;20025;-72
2023/12/28 06:27:30;;;;;;;9.73;6.93;;;8.70;99.90;;;;;;5071733;28;20020;-72
2023/12/28 06:29:56;;;;;;;9.50;7.25;;;8.70;99.90;;;;;;5071776;28;20052;-72
2023/12/28 06:32:22;;;;;;;12.82;7.40;;;8.70;99.90;;;;;;5071912;28;20079;-72
2023/12/28 06:34:48;;;;;;;8.38;7.35;;;8.70;99.90;;;;;;5071318;28;20099;-73
2023/12/28 06:37:14;;;;;;;11.05;6.95;;;8.70;99.90;;;;;;5071595;28;20028;-72
2023/12/28 06:39:40;;;;;;;10.18;7.68;;;8.70;99.90;;;;;;5071645;28;20486;-72
2023/12/28 06:42:06;;;;;;;9.15;6.95;;;8.70;99.90;;;;;;5071485;28;20040;-72
2023/12/28 06:44:31;;;;;;;9.48;7.53;;;8.70;99.90;;;;;;5071865;28;20355;-73
2023/12/28 06:46:58;;;;;;;10.00;7.50;;;8.70;99.90;;;;;;5071800;28;20032;-72
2023/12/28 06:49:24;;;;;;;11.70;7.80;;;8.70;99.90;;;;;;5071469;28;20029;-72
2023/12/28 06:51:50;;;;;;;10.75;7.50;;;8.70;99.90;;;;;;5071600;28;20499;-72
2023/12/28 06:54:16;;;;;;;9.90;7.35;;;8.70;99.90;;;;;;5071508;28;20025;-72
2023/12/28 06:56:41;;;;;;;9.50;7.25;;;8.70;99.90;;;;;;5071914;28;20051;-72
2023/12/28 06:59:11;;;;;;;9.98;7.40;;;8.70;99.90;;;;;;5074662;28;20486;-72
2023/12/28 07:01:38;;;;;;;10.40;7.07;;;8.70;99.90;;;;;;5075096;28;20486;-72
2023/12/28 07:04:03;;;;;;;12.60;7.13;;;8.70;99.90;;;;;;5074810;28;20046;-72
2023/12/28 07:06:29;;;;;;;8.80;7.13;;;8.70;99.90;;;;;;5074896;28;20021;-72
2023/12/28 07:08:54;;;;;;;9.63;7.50;;;8.60;99.90;;;;;;5075432;28;20048;-72
2023/12/28 07:11:20;;;;;;;9.50;7.10;;;8.60;99.90;;;;;;5074961;28;20024;-72
2023/12/28 07:13:46;;;;;;;8.88;7.22;;;8.60;99.90;;;;;;5074767;28;20249;-72
2023/12/28 07:16:12;;;;;;;9.25;7.22;;;8.60;99.90;;;;;;5074805;28;20044;-72
2023/12/28 07:18:38;;;;;;;10.32;7.18;;;8.60;99.90;;;;;;5074526;28;20498;-72
2023/12/28 07:21:04;;;;;;;11.38;7.07;;;8.70;99.90;;;;;;5074715;28;20017;-72
2023/12/28 07:23:30;;;;;;;8.65;6.88;;;8.70;99.90;;;;;;5074616;28;20044;-72
2023/12/28 07:25:55;;;;;;;10.00;7.20;;;8.60;99.90;;;;;;5074686;28;20025;-72
2023/12/28 07:28:21;;;;;;;9.27;7.35;;;8.60;99.90;;;;;;5074994;28;20024;-72
2023/12/28 07:30:46;;;;;;;8.70;7.80;;;8.60;99.90;;;;;;5074524;28;20069;-72
2023/12/28 07:33:12;;;;;;;9.15;8.25;;;8.60;99.90;;;;;;5073069;28;20070;-71
2023/12/28 07:35:39;;;;;;;10.80;7.45;;;8.70;99.90;;;;;;5074438;28;20541;-71
2023/12/28 07:38:04;;;;;;;8.32;7.53;;;8.90;99.90;;;;;;5074692;28;20040;-71
2023/12/28 07:40:30;;;;;;;10.15;7.55;;;9.00;99.90;;;;;;5074409;28;20040;-72
2023/12/28 07:42:56;;;;;;;9.05;7.93;;;9.20;99.90;;;;;;5074088;28;20041;-71
2023/12/28 07:45:23;;;;;;;18.42;8.52;;;9.30;99.90;;;;;;5074134;28;20537;-71
2023/12/28 07:47:51;;;;;;;10.98;7.25;;;9.40;99.90;;;;;;5074030;28;20033;-71
2023/12/28 07:50:17;;;;;;;12.88;7.38;;;9.40;99.90;;;;;;5074653;28;20025;-72
2023/12/28 07:52:43;;;;;;;10.65;7.25;;;9.50;99.90;;;;;;5074225;28;20143;-72
2023/12/28 07:55:09;;;;;;;7.75;6.90;;;9.50;99.90;;;;;;5074240;28;20099;-72
2023/12/28 07:57:36;;;;;;;8.40;6.65;;;9.40;99.90;;;;;;5074400;28;20112;-72
2023/12/28 08:00:02;;;;;;;7.97;6.45;;;9.30;99.90;;;;;;5073954;28;20103;-73
2023/12/28 08:02:28;;;;;;;10.23;7.13;;;9.20;99.90;;;;;;5073612;28;20028;-72
2023/12/28 08:04:53;;;;;;;8.73;6.80;;;9.20;99.90;;;;;;5074046;28;20074;-72
2023/12/28 08:07:19;;;;;;;7.65;6.57;;;9.10;99.90;;;;;;5073874;28;20056;-72
2023/12/28 08:09:44;;;;;;;9.52;7.47;;;9.00;99.90;;;;;;5073061;28;20024;-72
2023/12/28 08:12:10;;;;;;;9.40;6.65;;;8.90;99.90;;;;;;5074114;28;20060;-73
2023/12/28 08:14:36;;;;;;;9.60;6.45;;;8.90;99.90;;;;;;5073796;28;20016;-73
2023/12/28 08:17:02;;;;;;;9.93;6.55;;;8.90;99.90;;;;;;5073478;28;20073;-73
2023/12/28 08:19:27;;;;;;;10.18;6.72;;;8.90;99.90;;;;;;5073729;28;20025;-73
2023/12/28 08:21:53;;;;;;;9.43;6.88;;;8.90;99.90;;;;;;5073625;28;20111;-73
2023/12/28 08:24:18;;;;;;;8.07;6.95;;;8.90;99.90;;;;;;5073931;28;20028;-72
2023/12/28 08:26:44;;;;;;;9.00;7.57;;;8.90;99.90;;;;;;5073371;28;20436;-72
2023/12/28 08:29:11;;;;;;;12.00;7.43;;;8.90;99.90;;;;;;5073511;28;20028;-73
2023/12/28 08:31:36;;;;;;;12.32;8.20;;;8.90;99.90;;;;;;5073096;28;20044;-73
2023/12/28 08:34:02;;;;;;;16.55;13.13;;;8.90;99.90;;;;;;5073472;28;20478;-72
2023/12/28 08:36:28;;;;;;;13.73;9.75;;;8.90;99.90;;;;;;5073308;28;20025;-73
2023/12/28 08:38:53;;;;;;;11.15;7.90;;;8.90;99.90;;;;;;5073784;28;20036;-73
2023/12/28 08:41:20;;;;;;;11.65;8.30;;;8.90;99.90;;;;;;5072968;28;20103;-73
2023/12/28 08:43:47;;;;;;;9.50;7.60;;;8.90;99.90;;;;;;5073366;28;20095;-73
2023/12/28 08:46:13;;;;;;;9.10;7.47;;;9.00;99.90;;;;;;5072546;28;20057;-72
2023/12/28 08:48:39;;;;;;;9.88;7.30;;;8.90;99.90;;;;;;5072998;28;20430;-72
2023/12/28 08:51:04;;;;;;;10.15;7.38;;;9.00;99.90;;;;;;5073464;28;20094;-72
2023/12/28 08:53:30;;;;;;;8.05;6.95;;;9.00;99.90;;;;;;5072994;28;20035;-72
2023/12/28 08:55:56;;;;;;;9.73;7.30;;;9.00;99.90;;;;;;5072796;28;20035;-72
2023/12/28 08:58:21;;;;;;;9.63;7.40;;;9.10;99.90;;;;;;5073006;28;20032;-73
2023/12/28 09:00:48;;;;;;;10.60;7.95;;;9.10;99.90;;;;;;5072784;28;20070;-72
2023/12/28 09:03:14;;;;;;;10.90;7.10;;;9.10;99.90;;;;;;5072885;28;20043;-72
2023/12/28 09:05:40;;;;;;;8.73;6.90;;;9.10;99.90;;;;;;5072782;28;20025;-72
2023/12/28 09:08:06;;;;;;;9.80;6.90;;;9.10;99.90;;;;;;5073128;28;20029;-72
2023/12/28 09:10:31;;;;;;;8.02;6.63;;;9.20;99.90;;;;;;5072715;28;20044;-72
2023/12/28 09:12:57;;;;;;;8.85;6.38;;;9.10;99.90;;;;;;5072626;28;20024;-72
2023/12/28 09:15:23;;;;;;;11.25;7.10;;;9.10;99.90;;;;;;5072327;28;20051;-72
2023/12/28 09:17:49;;;;;;;9.77;6.70;;;9.20;99.90;;;;;;5072652;28;20039;-73
2023/12/28 09:20:15;;;;;;;8.35;6.72;;;9.20;99.90;;;;;;5072431;28;20041;-72
2023/12/28 09:22:41;;;;;;;7.55;6.53;;;9.20;99.90;;;;;;5072628;28;20119;-72
2023/12/28 09:25:07;;;;;;;9.40;6.82;;;9.30;99.90;;;;;;5072492;28;20410;-72
2023/12/28 09:27:33;;;;;;;15.52;11.75;;;9.30;99.90;;;;;;5072509;28;20020;-72
2023/12/28 09:29:58;;;;;;;17.33;15.48;;;9.40;99.90;;;;;;5071981;28;20095;-72
2023/12/28 09:32:24;;;;;;;23.80;17.83;;;9.60;99.90;;;;;;5072483;28;20103;-72
2023/12/28 09:34:50;;;;;;;21.20;16.52;;;9.70;99.90;;;;;;5072576;28;20054;-72
2023/12/28 09:37:15;;;;;;;21.35;16.13;;;9.80;99.90;;;;;;5072219;28;20070;-72
2023/12/28 09:39:42;;;;;;;12.80;11.05;;;9.90;99.90;;;;;;5072346;28;20021;-71
2023/12/28 09:42:32;;;;;;;10.13;8.95;;;10.10;99.90;;;;;;5072001;28;20409;-72
2023/12/28 09:44:57;;;;;;;9.63;6.93;;;10.10;99.90;;;;;;5072145;28;20043;-72
2023/12/28 09:47:23;;;;;;;9.20;6.35;;;10.20;99.90;;;;;;5071959;28;20024;-72
2023/12/28 09:49:49;;;;;;;8.80;6.55;;;10.10;99.90;;;;;;5072520;28;20033;-72
2023/12/28 09:52:14;;;;;;;9.50;6.53;;;10.00;99.90;;;;;;5072060;28;20033;-71
2023/12/28 09:54:40;;;;;;;12.13;7.40;;;9.90;99.90;;;;;;5071930;28;20025;-71
2023/12/28 09:57:06;;;;;;;10.18;7.30;;;9.90;99.90;;;;;;5072469;28;20020;-71
2023/12/28 09:59:32;;;;;;;9.48;6.40;;;9.80;99.90;;;;;;5071715;28;20467;-71
2023/12/28 10:02:00;;;;;;;10.88;7.05;;;9.80;99.90;;;;;;5071845;28;20055;-71
2023/12/28 10:04:29;;;;;;;10.32;7.10;;;9.80;99.90;;;;;;5072009;28;20267;-71
2023/12/28 10:06:54;;;;;;;8.38;6.07;;;9.70;99.90;;;;;;5071894;28;20024;-71
2023/12/28 10:09:21;;;;;;;8.93;6.07;;;9.70;99.90;;;;;;5071902;28;20024;-72
2023/12/28 10:11:47;;;;;;;9.98;6.20;;;9.70;99.90;;;;;;5071600;28;20525;-71
2023/12/28 10:14:13;;;;;;;9.15;6.20;;;9.70;99.90;;;;;;5071825;28;20025;-72
2023/12/28 10:16:42;;;;;;;7.25;5.50;;;9.70;99.90;;;;;;5071848;28;20035;-71
2023/12/28 10:19:08;;;;;;;8.20;5.93;;;9.70;99.90;;;;;;5070568;28;20123;-71
2023/12/28 10:21:34;;;;;;;8.10;6.30;;;9.70;99.90;;;;;;5071963;28;20486;-72
2023/12/28 10:23:59;;;;;;;10.75;6.18;;;9.70;99.90;;;;;;5071604;28;20033;-71
2023/12/28 10:26:25;;;;;;;7.38;5.65;;;9.80;99.90;;;;;;5071738;28;20378;-72
2023/12/28 10:28:59;;;;;;;6.07;5.32;;;9.80;99.90;;;;;;5071714;28;20475;-71
2023/12/28 10:31:25;;;;;;;18.98;14.15;;;9.80;99.90;;;;;;5071681;28;20012;-71
2023/12/28 10:33:50;;;;;;;12.63;8.90;;;9.80;99.90;;;;;;5074912;28;20078;-72
2023/12/28 10:36:17;;;;;;;15.35;9.50;;;9.90;99.90;;;;;;5075844;28;20024;-72
2023/12/28 10:38:45;;;;;;;11.32;7.60;;;9.90;99.90;;;;;;5075703;28;20024;-72
2023/12/28 10:41:13;;;;;;;9.13;7.22;;;9.90;99.90;;;;;;5075107;28;20030;-72
2023/12/28 10:44:10;;;;;;;7.78;6.45;;;9.90;99.90;;;;;;5075417;28;20048;-72
2023/12/28 10:46:43;;;;;;;12.20;8.50;;;9.90;99.90;;;;;;5066772;28;20037;-72
2023/12/28 10:49:09;;;;;;;10.20;8.90;;;10.00;99.90;;;;;;5075458;28;20108;-72
2023/12/28 10:51:39;;;;;;;12.70;10.95;;;10.00;99.90;;;;;;5075393;28;20103;-72
2023/12/28 10:54:36;;;;;;;13.80;11.18;;;10.00;99.90;;;;;;5075158;28;20108;-72
2023/12/28 10:57:21;;;;;;;11.55;10.23;;;10.00;99.90;;;;;;5074892;28;20036;-72
2023/12/28 11:00:03;;;;;;;15.15;10.45;;;10.10;99.90;;;;;;5075254;28;20035;-72
2023/12/28 11:02:37;;;;;;;11.32;9.02;;;10.10;99.90;;;;;;5075270;28;20505;-71
2023/12/28 11:05:04;;;;;;;8.00;7.20;;;10.20;99.90;;;;;;5075162;28;20032;-71
2023/12/28 11:07:32;;;;;;;8.68;6.38;;;10.20;99.90;;;;;;5074908;28;20028;-71
2023/12/28 11:10:01;;;;;;;8.48;6.20;;;10.20;99.90;;;;;;5074705;28;20217;-71
2023/12/28 11:12:28;;;;;;;6.85;5.88;;;10.30;99.90;;;;;;5074892;28;20030;-71
2023/12/28 11:14:55;;;;;;;7.70;6.10;;;10.30;99.90;;;;;;5075351;28;20047;-71
2023/12/28 11:17:24;;;;;;;7.40;5.72;;;10.30;99.90;;;;;;5074730;28;20036;-71
2023/12/28 11:19:53;;;;;;;7.25;5.80;;;10.40;99.90;;;;;;5074916;28;20017;-71
2023/12/28 11:22:20;;;;;;;7.53;6.32;;;10.40;99.90;;;;;;5074730;28;20025;-70
2023/12/28 11:24:46;;;;;;;8.50;5.95;;;10.50;99.90;;;;;;5074448;28;20389;-71
2023/12/28 11:27:12;;;;;;;6.53;5.88;;;10.70;99.90;;;;;;5074709;28;20101;-71
2023/12/28 11:29:38;;;;;;;7.10;5.40;;;10.80;99.90;;;;;;5074703;28;20036;-70
2023/12/28 11:32:04;;;;;;;8.02;6.03;;;10.90;99.90;;;;;;5073314;28;20024;-71
2023/12/28 11:34:34;;;;;;;10.07;6.10;;;11.00;99.90;;;;;;5074474;28;20047;-71
2023/12/28 11:37:05;;;;;;;7.82;5.70;;;11.00;99.90;;;;;;5074578;28;20028;-70
2023/12/28 11:39:34;;;;;;;6.65;5.45;;;11.10;99.90;;;;;;5074189;28;20020;-71
2023/12/28 11:42:04;;;;;;;7.85;5.82;;;11.20;99.90;;;;;;5074198;28;20021;-71
2023/12/28 11:44:39;;;;;;;6.90;6.00;;;11.20;99.90;;;;;;5073150;28;20048;-70
2023/12/28 11:47:21;;;;;;;6.50;5.90;;;11.20;99.90;;;;;;5074261;28;20032;-72
2023/12/28 11:49:48;;;;;;;8.45;6.28;;;11.10;99.90;;;;;;5074576;28;20489;-71
2023/12/28 11:52:28;;;;;;;8.35;6.25;;;11.10;99.90;;;;;;5074230;28;20036;-72
2023/12/28 11:54:55;;;;;;;7.55;6.15;;;11.10;99.90;;;;;;5073735;28;20406;-72
2023/12/28 11:57:21;;;;;;;7.53;6.20;;;11.10;99.90;;;;;;5074163;28;20078;-71
2023/12/28 12:00:02;;;;;;;8.05;6.20;;;11.10;99.90;;;;;;5074204;28;20027;-71
2023/12/28 12:02:27;;;;;;;8.77;6.70;;;11.10;99.90;;;;;;5073931;28;20032;-71
2023/12/28 12:05:01;;;;;;;9.05;6.70;;;11.10;99.90;;;;;;5073917;28;20033;-71
2023/12/28 12:07:27;;;;;;;7.82;6.32;;;11.20;99.90;;;;;;5074209;28;20111;-72
2023/12/28 12:09:59;;;;;;;10.65;7.10;;;11.20;99.90;;;;;;5073731;28;20108;-72
2023/12/28 12:12:25;;;;;;;9.60;7.30;;;11.30;99.90;;;;;;5073664;28;20094;-71
2023/12/28 12:14:51;;;;;;;9.02;6.90;;;11.30;99.90;;;;;;5074144;28;20031;-72
2023/12/28 12:17:18;;;;;;;8.38;6.82;;;11.40;99.90;;;;;;5073739;28;20490;-72
2023/12/28 12:19:47;;;;;;;8.15;5.53;;;11.40;99.90;;;;;;5073758;28;20024;-72
2023/12/28 12:22:13;;;;;;;9.38;5.68;;;11.50;99.90;;;;;;5073304;28;20040;-71
2023/12/28 12:24:43;;;;;;;6.32;5.40;;;11.50;99.90;;;;;;5073638;28;20021;-72
2023/12/28 12:27:08;;;;;;;6.50;4.82;;;11.50;99.90;;;;;;5073467;28;20395;-72
2023/12/28 12:29:34;;;;;;;6.07;4.53;;;11.50;99.90;;;;;;5073543;28;20036;-72
2023/12/28 12:32:03;;;;;;;8.38;5.20;;;11.60;99.90;;;;;;5073830;28;20050;-73
2023/12/28 12:34:28;;;;;;;6.07;4.95;;;11.60;99.90;;;;;;5073536;28;20467;-72
2023/12/28 12:36:54;;;;;;;6.57;4.88;;;11.70;99.90;;;;;;5072987;28;20042;-72
2023/12/28 12:39:22;;;;;;;8.82;6.63;;;11.80;99.90;;;;;;5073443;28;20025;-72
2023/12/28 12:41:49;;;;;;;12.18;8.25;;;11.80;99.90;;;;;;5073198;28;20033;-72
2023/12/28 12:44:16;;;;;;;14.77;11.30;;;11.80;99.90;;;;;;5073031;28;20098;-72
2023/12/28 12:46:42;;;;;;;12.27;10.43;;;11.80;99.90;;;;;;5073347;28;20423;-72
2023/12/28 12:49:08;;;;;;;9.82;8.23;;;11.80;99.90;;;;;;5071901;28;20029;-72